Saguenay, Canada
Current Conditions -  °F | °C
As of 7:00 AM on Tuesday 21 Oct 2014 (Local Time) from CYBG Reporting Station
Scattered Clouds Scattered Clouds  
Wind Chill: 23°   Ceiling: Unl
Heat Index: 28°   Visibility: 25mi
Dew Point: 25°   Wind: 5mph
Humidity: 86%   Direction: 250°WSW
Pressure: 30.08"   Gusts: NA
Location:  48.42°N, 71.07°W
Report Text: CYBG 211100Z 25004KT 25SM FEW030 SCT160 SCT240 M02/M04 A3008 RMK SC1AC4CI1 SLP195
Loading
Personal Weather Stations






























Interactive Weather Map
Tropical Storm Tracking
New forecast layout! Learn more

10-Day Weather Forecast

Advertisements
Track Severe Weather on mobile